Time;durP1;ratioP1;P1;durP2;ratioP2;P2;SDS_P1;SDS_P2;PMS_P1;PMS_P2;Temp;Humidity;BMP_temperature;BMP_pressure;BME280_temperature;BME280_humidity;BME280_pressure;Samples;Min_cycle;Max_cycle;Signal;HPM_P1;HPM_P2
2023/05/13 00:01:06;;;;;;;18.48;7.25;;;15.80;99.90;;;;;;4843479;29;20074;-90
2023/05/13 00:03:32;;;;;;;14.38;6.57;;;15.80;99.90;;;;;;4873477;29;20042;-90
2023/05/13 00:05:58;;;;;;;22.95;7.35;;;15.80;99.90;;;;;;4875174;29;20105;-89
2023/05/13 00:08:25;;;;;;;16.05;6.75;;;15.80;99.90;;;;;;4846978;29;20033;-90
2023/05/13 00:10:53;;;;;;;20.27;7.30;;;15.80;99.90;;;;;;4861189;29;20038;-90
2023/05/13 00:13:21;;;;;;;16.92;7.20;;;15.70;99.90;;;;;;4842868;29;20054;-89
2023/05/13 00:15:47;;;;;;;17.15;7.15;;;15.70;99.90;;;;;;4865907;29;20456;-90
2023/05/13 00:18:13;;;;;;;18.83;7.18;;;15.70;99.90;;;;;;4851688;29;20078;-91
2023/05/13 00:20:38;;;;;;;14.73;6.80;;;15.70;99.90;;;;;;4843918;29;20156;-90
2023/05/13 00:23:06;;;;;;;17.90;7.10;;;15.60;99.90;;;;;;4857383;24;20046;-91
2023/05/13 00:25:32;;;;;;;15.40;6.28;;;15.60;99.90;;;;;;4823414;29;20051;-90
2023/05/13 00:27:58;;;;;;;16.08;7.45;;;15.60;99.90;;;;;;4838554;29;20452;-90
2023/05/13 00:30:30;;;;;;;18.70;6.82;;;15.50;99.90;;;;;;4841613;29;20042;-90
2023/05/13 00:32:59;;;;;;;19.58;7.60;;;15.50;99.90;;;;;;4841439;29;20050;-90
2023/05/13 00:35:30;;;;;;;20.05;7.20;;;15.50;99.90;;;;;;4840343;29;20057;-90
2023/05/13 00:37:58;;;;;;;20.45;7.22;;;15.50;99.90;;;;;;4842630;29;20057;-90
2023/05/13 00:40:27;;;;;;;19.42;7.00;;;15.40;99.90;;;;;;4842575;29;20073;-90
2023/05/13 00:42:56;;;;;;;13.38;7.30;;;15.40;99.90;;;;;;4832317;29;20057;-90
2023/05/13 00:45:27;;;;;;;19.65;7.45;;;15.30;99.90;;;;;;4825244;29;20085;-91
2023/05/13 00:47:53;;;;;;;19.58;7.72;;;15.30;99.90;;;;;;4825151;29;20062;-90
2023/05/13 00:50:21;;;;;;;16.17;7.38;;;15.30;99.90;;;;;;4824620;29;20046;-90
2023/05/13 00:52:54;;;;;;;15.57;7.40;;;15.30;99.90;;;;;;4857071;29;20049;-91
2023/05/13 00:55:23;;;;;;;;;;;15.30;99.90;;;;;;4858025;29;20077;-91
2023/05/13 00:57:54;;;;;;;18.88;7.05;;;15.20;99.90;;;;;;4834046;29;19932;-91
2023/05/13 01:00:26;;;;;;;18.33;7.45;;;15.20;99.90;;;;;;4828905;29;20065;-91
2023/05/13 01:03:40;;;;;;;14.05;7.47;;;15.20;99.90;;;;;;4842459;29;20506;-90
2023/05/13 01:06:46;;;;;;;19.98;7.75;;;15.10;99.90;;;;;;4841239;29;20083;-90
2023/05/13 01:09:29;;;;;;;19.38;7.68;;;15.10;99.90;;;;;;4843563;29;20056;-90
2023/05/13 01:12:56;;;;;;;19.92;7.80;;;15.10;99.90;;;;;;4830121;29;20086;-90
2023/05/13 01:15:41;;;;;;;21.10;8.00;;;15.00;99.90;;;;;;4827593;29;20057;-90
2023/05/13 01:18:32;;;;;;;17.95;7.78;;;14.90;99.90;;;;;;4839467;29;20046;-90
2023/05/13 01:21:00;;;;;;;18.38;7.93;;;14.90;99.90;;;;;;4809613;29;20138;-90
2023/05/13 01:23:26;;;;;;;17.60;7.57;;;14.90;99.90;;;;;;4842691;29;20101;-91
2023/05/13 01:25:55;;;;;;;13.15;7.55;;;14.80;99.90;;;;;;4857025;29;20081;-89
2023/05/13 01:28:23;;;;;;;13.48;7.40;;;14.80;99.90;;;;;;4823256;29;20082;-91
2023/05/13 01:30:52;;;;;;;18.65;7.82;;;14.70;99.90;;;;;;4823901;29;20066;-91
2023/05/13 01:33:25;;;;;;;18.40;8.30;;;14.70;99.90;;;;;;4848569;24;20062;-90
2023/05/13 01:35:51;;;;;;;14.45;7.38;;;14.70;99.90;;;;;;4825756;29;20514;-90
2023/05/13 01:38:34;;;;;;;18.58;7.78;;;14.60;99.90;;;;;;4824550;29;20042;-90
2023/05/13 01:41:06;;;;;;;15.82;7.65;;;14.50;99.90;;;;;;4839046;29;20051;-90
2023/05/13 01:43:40;;;;;;;17.80;7.80;;;14.50;99.90;;;;;;4824242;29;20514;-89
2023/05/13 01:46:12;;;;;;;12.07;7.10;;;14.50;99.90;;;;;;4808281;29;20406;-91
2023/05/13 01:48:38;;;;;;;15.27;7.20;;;14.40;99.90;;;;;;4833883;29;20460;-91
2023/05/13 01:51:06;;;;;;;14.55;7.63;;;14.30;99.90;;;;;;4820294;29;20077;-90
2023/05/13 01:53:38;;;;;;;17.52;7.93;;;14.30;99.90;;;;;;4856838;29;20046;-90
2023/05/13 01:56:12;;;;;;;17.10;7.78;;;14.30;99.90;;;;;;4836176;29;20050;-89
2023/05/13 01:58:40;;;;;;;16.67;8.68;;;14.30;99.90;;;;;;4823256;29;20046;-91
2023/05/13 02:01:06;;;;;;;15.63;8.23;;;14.20;99.90;;;;;;4826273;29;20043;-91
2023/05/13 02:03:36;;;;;;;17.92;8.18;;;14.20;99.90;;;;;;4829164;29;20057;-91
2023/05/13 02:06:03;;;;;;;19.77;8.38;;;14.20;99.90;;;;;;4822011;29;20035;-90
2023/05/13 02:08:29;;;;;;;18.00;7.38;;;14.20;99.90;;;;;;4813987;29;20049;-90
2023/05/13 02:11:01;;;;;;;18.88;8.50;;;14.10;99.90;;;;;;4829991;29;20522;-90
2023/05/13 02:13:29;;;;;;;16.88;8.52;;;14.00;99.90;;;;;;4841966;29;20411;-92
2023/05/13 02:15:58;;;;;;;18.10;7.53;;;14.10;99.90;;;;;;4827994;29;20050;-90
2023/05/13 02:18:27;;;;;;;17.55;8.70;;;14.00;99.90;;;;;;4838799;29;20073;-91
2023/05/13 02:20:59;;;;;;;15.88;8.00;;;14.00;99.90;;;;;;4831193;29;20062;-91
2023/05/13 02:23:24;;;;;;;17.92;8.63;;;13.90;99.90;;;;;;4838196;29;20054;-90
2023/05/13 02:25:50;;;;;;;14.30;8.65;;;13.90;99.90;;;;;;4840062;29;20058;-91
2023/05/13 02:28:18;;;;;;;16.77;8.32;;;13.90;99.90;;;;;;4861499;29;20502;-91
2023/05/13 02:30:44;;;;;;;12.38;7.47;;;13.80;99.90;;;;;;4845975;29;20065;-91
2023/05/13 02:33:09;;;;;;;17.40;8.70;;;13.80;99.90;;;;;;4867680;23;20505;-90
2023/05/13 02:35:35;;;;;;;16.80;7.75;;;13.80;99.90;;;;;;4838624;29;20563;-90
2023/05/13 02:38:03;;;;;;;14.35;7.47;;;13.80;99.90;;;;;;4847155;29;20043;-90
2023/05/13 02:40:29;;;;;;;14.43;8.60;;;13.70;99.90;;;;;;4809327;29;20437;-90
2023/05/13 02:43:00;;;;;;;17.20;8.63;;;13.70;99.90;;;;;;4813938;29;20133;-90
2023/05/13 02:45:32;;;;;;;11.85;8.10;;;13.70;99.90;;;;;;4829532;29;20079;-90
2023/05/13 02:48:01;;;;;;;17.83;8.60;;;13.70;99.90;;;;;;4843639;29;20056;-90
2023/05/13 02:50:27;;;;;;;18.80;8.57;;;13.70;99.90;;;;;;4844481;29;20049;-91
2023/05/13 02:52:52;;;;;;;14.10;8.75;;;13.60;99.90;;;;;;4835250;29;20049;-91
2023/05/13 02:55:25;;;;;;;14.45;9.52;;;13.60;99.90;;;;;;4844234;29;20136;-91
2023/05/13 02:57:51;;;;;;;;;;;13.60;99.90;;;;;;4838382;29;20358;-90
2023/05/13 03:00:20;;;;;;;14.27;8.93;;;13.40;99.90;;;;;;4810032;29;19989;-91
2023/05/13 03:02:52;;;;;;;14.80;9.07;;;13.40;99.90;;;;;;4840970;29;20050;-90
2023/05/13 03:05:18;;;;;;;12.82;8.55;;;13.40;99.90;;;;;;4856648;29;20058;-90
2023/05/13 03:07:49;;;;;;;19.00;8.88;;;13.30;99.90;;;;;;4827347;29;20054;-89
2023/05/13 03:10:15;;;;;;;15.07;9.07;;;13.30;99.90;;;;;;4845543;29;20046;-91
2023/05/13 03:13:02;;;;;;;17.70;9.80;;;13.30;99.90;;;;;;4841293;29;20466;-90
2023/05/13 03:15:28;;;;;;;17.73;9.50;;;13.20;99.90;;;;;;4810795;29;20495;-90
2023/05/13 03:17:54;;;;;;;15.18;9.52;;;13.20;99.90;;;;;;4825795;29;20137;-90
2023/05/13 03:20:19;;;;;;;15.93;8.68;;;13.20;99.90;;;;;;4826185;29;20043;-91
2023/05/13 03:22:45;;;;;;;14.30;8.45;;;13.20;99.90;;;;;;4825723;29;20047;-91
2023/05/13 03:25:12;;;;;;;15.73;9.07;;;13.20;99.90;;;;;;4841000;29;20381;-90
2023/05/13 03:27:59;;;;;;;13.98;8.68;;;13.10;99.90;;;;;;4830057;29;20133;-90
2023/05/13 03:30:25;;;;;;;15.50;9.40;;;13.10;99.90;;;;;;4828380;29;20129;-90
2023/05/13 03:32:51;;;;;;;16.77;9.60;;;13.10;99.90;;;;;;4837711;29;20195;-90
2023/05/13 03:35:16;;;;;;;15.18;9.90;;;13.00;99.90;;;;;;4856016;29;20098;-89
2023/05/13 03:37:43;;;;;;;15.25;9.07;;;13.00;99.90;;;;;;4857076;29;20042;-89
2023/05/13 03:40:15;;;;;;;16.85;9.48;;;13.00;99.90;;;;;;4827629;29;20160;-90
2023/05/13 03:42:40;;;;;;;13.75;8.88;;;13.00;99.90;;;;;;4824845;29;20046;-90
2023/05/13 03:45:07;;;;;;;13.45;9.00;;;12.90;99.90;;;;;;4842329;29;20053;-90
2023/05/13 03:47:37;;;;;;;14.63;9.65;;;12.90;99.90;;;;;;4835409;29;20042;-89
2023/05/13 03:50:04;;;;;;;13.02;9.10;;;12.90;99.90;;;;;;4838192;29;20057;-91
2023/05/13 03:52:35;;;;;;;14.02;9.25;;;12.80;99.90;;;;;;4844121;29;20049;-90
2023/05/13 03:55:05;;;;;;;15.55;9.50;;;12.90;99.90;;;;;;4835231;29;20403;-91
2023/05/13 03:57:30;;;;;;;15.10;9.52;;;12.80;99.90;;;;;;4825963;29;20388;-90
2023/05/13 03:59:56;;;;;;;15.60;9.68;;;12.80;99.90;;;;;;4835563;29;20057;-91
2023/05/13 04:02:24;;;;;;;17.55;10.45;;;12.80;99.90;;;;;;4826661;29;20531;-90
2023/05/13 04:04:50;;;;;;;14.57;9.30;;;12.80;99.90;;;;;;4826306;29;20223;-90
2023/05/13 04:07:19;;;;;;;14.85;9.45;;;12.70;99.90;;;;;;4858355;29;20581;-90
2023/05/13 04:09:50;;;;;;;19.15;10.40;;;12.70;99.90;;;;;;4834780;29;20144;-90
2023/05/13 04:12:19;;;;;;;18.23;9.90;;;12.70;99.90;;;;;;4825085;29;20050;-90
2023/05/13 04:14:45;;;;;;;19.02;9.82;;;12.70;99.90;;;;;;4814323;29;20047;-90
2023/05/13 04:17:11;;;;;;;15.32;9.65;;;12.70;99.90;;;;;;4854693;29;20412;-90
2023/05/13 04:19:39;;;;;;;14.65;10.15;;;12.60;99.90;;;;;;4829050;29;20042;-90
2023/05/13 04:22:04;;;;;;;12.75;10.05;;;12.60;99.90;;;;;;4855114;29;20042;-90
2023/05/13 04:24:36;;;;;;;15.30;10.60;;;12.60;99.90;;;;;;4854423;29;20154;-90
2023/05/13 04:27:04;;;;;;;15.20;10.10;;;12.60;99.90;;;;;;4896575;24;20149;-90
2023/05/13 04:29:32;;;;;;;14.30;10.15;;;12.60;99.90;;;;;;4844715;29;20444;-89
2023/05/13 04:31:58;;;;;;;14.00;10.63;;;12.50;99.90;;;;;;4846307;29;20114;-90
2023/05/13 04:34:24;;;;;;;14.52;10.80;;;12.60;99.90;;;;;;4844121;29;20574;-90
2023/05/13 04:36:57;;;;;;;15.65;10.40;;;12.60;99.90;;;;;;4858533;29;20056;-90
2023/05/13 04:39:22;;;;;;;17.48;10.80;;;12.50;99.90;;;;;;4844313;29;20061;-90
2023/05/13 04:41:48;;;;;;;18.27;11.73;;;12.60;99.90;;;;;;4860430;29;20058;-89
2023/05/13 04:44:14;;;;;;;13.88;10.40;;;12.60;99.90;;;;;;4846293;29;20050;-89
2023/05/13 04:46:49;;;;;;;;;;;;;;;;;;;;;
2023/05/13 04:49:22;;;;;;;14.88;10.40;;;12.60;99.90;;;;;;4832401;29;20137;-89
2023/05/13 04:51:47;;;;;;;15.10;10.73;;;12.60;99.90;;;;;;4838961;29;20051;-90
2023/05/13 04:54:13;;;;;;;20.55;10.85;;;12.60;99.90;;;;;;4842590;29;20048;-90
2023/05/13 04:56:41;;;;;;;19.30;11.27;;;12.60;99.90;;;;;;4851887;24;20058;-90
2023/05/13 04:59:08;;;;;;;15.23;10.98;;;12.60;99.90;;;;;;4849520;24;20042;-91
2023/05/13 05:01:34;;;;;;;16.92;10.52;;;12.60;99.90;;;;;;4850085;29;20046;-90
2023/05/13 05:03:59;;;;;;;16.17;11.10;;;12.60;99.90;;;;;;4873061;29;20078;-90
2023/05/13 05:06:25;;;;;;;20.23;11.30;;;12.60;99.90;;;;;;4845283;29;20054;-90
2023/05/13 05:08:57;;;;;;;18.98;10.98;;;12.60;99.90;;;;;;4855557;29;20136;-90
2023/05/13 05:11:26;;;;;;;18.00;11.45;;;12.60;99.90;;;;;;4856717;29;20037;-90
2023/05/13 05:13:57;;;;;;;17.80;10.77;;;12.70;99.90;;;;;;4842893;29;20126;-91
2023/05/13 05:16:23;;;;;;;14.18;10.55;;;12.70;99.90;;;;;;4843257;29;20050;-91
2023/05/13 05:18:58;;;;;;;15.40;9.98;;;12.70;99.90;;;;;;4840736;29;20114;-89
2023/05/13 05:21:23;;;;;;;18.60;10.50;;;12.70;99.90;;;;;;4852062;24;20070;-91
2023/05/13 05:23:49;;;;;;;21.83;11.35;;;12.70;99.90;;;;;;4850921;24;20086;-90
2023/05/13 05:26:15;;;;;;;18.55;11.02;;;12.70;99.90;;;;;;4840291;29;20475;-89
2023/05/13 05:28:41;;;;;;;18.83;10.60;;;12.70;99.90;;;;;;4841412;29;20057;-90
2023/05/13 05:31:08;;;;;;;15.07;10.13;;;12.70;99.90;;;;;;4848477;29;20084;-91
2023/05/13 05:33:35;;;;;;;16.98;10.45;;;12.80;99.90;;;;;;4872288;29;20084;-91
2023/05/13 05:36:03;;;;;;;19.83;11.13;;;12.70;99.90;;;;;;4842230;29;20546;-91
2023/05/13 05:38:32;;;;;;;17.40;10.23;;;12.80;99.90;;;;;;4845834;29;20627;-91
2023/05/13 05:41:01;;;;;;;17.15;10.15;;;12.80;99.90;;;;;;4843987;29;20507;-90
2023/05/13 05:43:35;;;;;;;15.00;10.30;;;12.80;99.90;;;;;;4856544;29;20121;-90
2023/05/13 05:46:04;;;;;;;16.13;9.98;;;12.80;99.90;;;;;;4849909;29;20511;-91
2023/05/13 05:48:33;;;;;;;17.48;10.60;;;12.80;99.90;;;;;;4860517;29;20064;-87
2023/05/13 05:51:10;;;;;;;18.92;9.70;;;12.80;99.90;;;;;;4855907;29;20038;-87
2023/05/13 05:53:39;;;;;;;13.43;9.32;;;12.80;99.90;;;;;;4841429;29;20402;-87
2023/05/13 05:56:05;;;;;;;16.13;9.93;;;12.80;99.90;;;;;;4853842;29;20533;-88
2023/05/13 05:58:34;;;;;;;16.50;9.63;;;12.80;99.90;;;;;;4861711;29;20065;-92
2023/05/13 06:01:09;;;;;;;16.02;9.02;;;12.90;99.90;;;;;;4860496;29;20050;-92
2023/05/13 06:03:35;;;;;;;15.25;9.05;;;12.90;99.90;;;;;;4854903;29;20050;-91
2023/05/13 06:06:04;;;;;;;14.13;8.68;;;12.90;99.90;;;;;;4844448;29;20046;-92
2023/05/13 06:08:30;;;;;;;13.35;8.80;;;12.90;99.90;;;;;;4863614;29;20074;-91
2023/05/13 06:11:07;;;;;;;15.68;8.68;;;12.90;99.90;;;;;;4843533;29;20049;-92
2023/05/13 06:14:15;;;;;;;;;;;;;;;;;;;;;
2023/05/13 06:29:52;;;;;;;10.70;8.02;;;13.10;99.90;;;;;;4845598;24;20054;-91
2023/05/13 06:32:17;;;;;;;12.60;8.13;;;13.20;99.90;;;;;;4850310;29;20403;-91
2023/05/13 06:34:47;;;;;;;18.90;8.95;;;13.30;99.90;;;;;;4840993;29;20045;-91
2023/05/13 06:37:13;;;;;;;13.82;7.97;;;13.30;99.90;;;;;;4847916;29;20114;-90
2023/05/13 06:42:26;;;;;;;13.05;7.28;;;13.50;99.90;;;;;;4851408;29;20050;-89
2023/05/13 06:59:43;;;;;;;13.30;8.48;;;14.00;99.90;;;;;;5035878;24;20058;-89
2023/05/13 07:02:21;;;;;;;11.10;7.88;;;14.10;99.90;;;;;;4845242;29;20431;-89
2023/05/13 07:05:08;;;;;;;11.00;7.47;;;14.20;99.90;;;;;;4961473;24;20081;31
2023/05/13 07:15:07;;;;;;;12.02;6.95;;;14.50;99.90;;;;;;4825168;29;20054;-91
2023/05/13 07:18:22;;;;;;;9.52;5.75;;;14.60;99.90;;;;;;4810587;29;20054;-90
2023/05/13 07:21:22;;;;;;;13.45;6.25;;;14.70;99.90;;;;;;4826570;29;20077;-91
2023/05/13 07:24:32;;;;;;;;;;;;;;;;;;;;;
2023/05/13 07:27:47;;;;;;;11.55;6.25;;;14.90;99.90;;;;;;4767158;29;20055;-91
2023/05/13 07:37:09;;;;;;;8.52;6.28;;;15.40;99.90;;;;;;4831967;29;20564;-91
2023/05/13 07:39:56;;;;;;;10.23;6.40;;;15.50;99.90;;;;;;4842970;29;20076;-90
2023/05/13 07:53:36;;;;;;;8.57;4.65;;;15.90;99.90;;;;;;5155728;24;20050;-90
2023/05/13 07:56:07;;;;;;;9.45;5.63;;;16.10;99.90;;;;;;4826531;29;20133;-92
2023/05/13 07:59:13;;;;;;;9.00;5.40;;;16.20;99.90;;;;;;4825206;29;20050;-91
2023/05/13 08:01:58;;;;;;;8.07;5.60;;;16.30;99.90;;;;;;4824824;29;20521;-91
2023/05/13 08:05:17;;;;;;;8.43;3.90;;;16.40;99.90;;;;;;4824244;29;20428;-91
2023/05/13 08:08:15;;;;;;;;;;;;;;;;;;;;;
2023/05/13 08:14:21;;;;;;;8.38;4.15;;;16.70;99.90;;;;;;4888676;24;20053;-92
2023/05/13 08:17:28;;;;;;;7.95;4.80;;;16.80;99.90;;;;;;4811358;29;20065;-91
2023/05/13 08:30:42;;;;;;;;;;;;;;;;;;;;;
2023/05/13 08:47:22;;;;;;;11.18;3.42;;;17.90;99.90;;;;;;4841286;29;20050;-91
2023/05/13 08:49:49;;;;;;;10.32;4.07;;;18.00;98.90;;;;;;4803903;29;20137;-91
2023/05/13 08:52:19;;;;;;;11.07;4.28;;;18.10;99.60;;;;;;4805089;29;20055;-92
2023/05/13 08:58:00;;;;;;;8.75;3.83;;;18.40;99.90;;;;;;4828887;24;20081;-90
2023/05/13 09:00:29;;;;;;;9.43;4.43;;;18.40;99.00;;;;;;4840423;29;20046;-92
2023/05/13 09:02:54;;;;;;;9.57;3.75;;;18.60;99.30;;;;;;4840928;29;20102;-91
2023/05/13 09:05:21;;;;;;;9.30;3.20;;;18.70;97.60;;;;;;4841317;29;20050;-91
2023/05/13 09:07:47;;;;;;;8.70;4.00;;;18.80;95.80;;;;;;4842893;29;20057;-91
2023/05/13 09:10:16;;;;;;;11.50;4.10;;;18.90;96.60;;;;;;4843403;29;20046;-91
2023/05/13 09:13:00;;;;;;;8.32;3.83;;;18.90;95.80;;;;;;4842689;29;20053;-91
2023/05/13 09:15:27;;;;;;;10.40;4.03;;;19.00;94.40;;;;;;4843218;29;20053;-91
2023/05/13 09:17:58;;;;;;;8.10;4.00;;;19.10;94.80;;;;;;4840459;29;20411;-91
2023/05/13 09:20:24;;;;;;;6.78;3.90;;;19.20;96.00;;;;;;4841845;29;20049;-91
2023/05/13 09:23:22;;;;;;;8.25;3.70;;;19.30;97.40;;;;;;4841837;29;20046;-90
2023/05/13 09:26:02;;;;;;;7.43;3.45;;;19.30;96.60;;;;;;4852711;24;20042;-91
2023/05/13 09:28:43;;;;;;;5.85;3.83;;;19.40;96.30;;;;;;4823732;29;20062;-91
2023/05/13 09:31:12;;;;;;;8.70;3.50;;;19.50;96.70;;;;;;4823774;29;20066;-90
2023/05/13 09:33:37;;;;;;;7.53;3.47;;;19.60;96.40;;;;;;4823641;29;20088;-91
2023/05/13 09:36:07;;;;;;;9.27;2.85;;;19.60;96.00;;;;;;4823716;29;20078;-90
2023/05/13 09:38:37;;;;;;;6.82;3.80;;;19.70;94.50;;;;;;4824707;29;20047;-91
2023/05/13 09:41:05;;;;;;;9.48;3.55;;;19.80;95.90;;;;;;4824402;29;20521;-91
2023/05/13 09:43:32;;;;;;;8.82;3.25;;;19.90;96.50;;;;;;4823555;29;20096;-91
2023/05/13 09:46:01;;;;;;;5.38;3.33;;;19.90;95.60;;;;;;4823398;29;20046;-90
2023/05/13 09:48:29;;;;;;;9.00;3.17;;;20.00;96.70;;;;;;4824574;29;20046;-88
2023/05/13 09:50:56;;;;;;;8.38;3.10;;;20.10;94.50;;;;;;4823915;29;20050;-89
2023/05/13 09:53:23;;;;;;;6.50;2.80;;;20.10;93.90;;;;;;4822487;29;20047;-89
2023/05/13 09:55:56;;;;;;;12.75;2.60;;;20.20;93.10;;;;;;4824486;29;20050;-90
2023/05/13 09:58:29;;;;;;;9.50;3.30;;;20.30;90.20;;;;;;4825116;29;20436;-90
2023/05/13 10:00:55;;;;;;;;;;;20.30;91.00;;;;;;4824699;29;20479;-90
2023/05/13 10:03:27;;;;;;;6.47;3.13;;;20.30;94.90;;;;;;4824620;29;19924;-90
2023/05/13 10:11:55;;;;;;;;;;;;;;;;;;;;;
2023/05/13 10:14:36;;;;;;;8.73;3.15;;;20.70;93.10;;;;;;4829839;29;20057;-90
2023/05/13 10:17:30;;;;;;;5.95;3.20;;;20.80;92.90;;;;;;4841469;29;20110;-91
2023/05/13 10:20:44;;;;;;;6.80;2.92;;;20.90;94.50;;;;;;4834025;24;20049;-91
2023/05/13 10:25:52;;;;;;;9.43;2.90;;;21.10;93.40;;;;;;4846590;24;20415;-92
2023/05/13 10:28:19;;;;;;;6.88;2.78;;;21.20;93.90;;;;;;4840996;29;20054;-90
2023/05/13 10:31:21;;;;;;;6.63;2.95;;;21.30;94.10;;;;;;4851864;24;20097;-91
2023/05/13 10:34:30;;;;;;;7.90;3.05;;;21.30;94.60;;;;;;4845038;29;20627;-91
2023/05/13 10:37:24;;;;;;;7.53;2.75;;;21.40;95.40;;;;;;4843913;29;20061;-91
2023/05/13 10:40:32;;;;;;;5.63;3.03;;;21.50;92.50;;;;;;4844976;29;20106;-92
2023/05/13 10:43:27;;;;;;;7.05;3.10;;;21.60;94.60;;;;;;4856209;24;20044;-90
2023/05/13 10:46:11;;;;;;;5.63;3.00;;;21.60;94.80;;;;;;4844889;29;20046;-91
2023/05/13 10:53:03;;;;;;;6.47;3.33;;;21.80;93.00;;;;;;4824256;29;20102;-89
2023/05/13 10:55:58;;;;;;;8.75;2.67;;;21.90;94.10;;;;;;4810473;29;20098;-90
2023/05/13 10:58:58;;;;;;;7.20;2.70;;;22.00;91.10;;;;;;4809593;29;20085;-91
2023/05/13 11:01:46;;;;;;;4.82;2.88;;;22.00;93.40;;;;;;4825109;29;20082;-91
2023/05/13 11:04:21;;;;;;;9.15;2.97;;;22.10;94.90;;;;;;4826795;29;20057;-91
2023/05/13 11:09:29;;;;;;;7.00;2.40;;;22.30;93.30;;;;;;4852984;24;20059;-91
2023/05/13 11:12:14;;;;;;;6.57;2.80;;;22.30;92.20;;;;;;4831450;24;20050;-91
2023/05/13 11:18:50;;;;;;;6.07;2.90;;;22.50;93.90;;;;;;4958289;24;20186;-91
2023/05/13 11:28:32;;;;;;;7.78;2.65;;;22.70;92.80;;;;;;5152096;24;20053;-91
2023/05/13 11:31:27;;;;;;;5.93;2.78;;;22.70;90.00;;;;;;4843170;29;20403;-91
2023/05/13 11:34:37;;;;;;;4.78;2.88;;;22.70;91.60;;;;;;4840793;29;20046;-91
2023/05/13 11:37:24;;;;;;;7.57;2.60;;;22.80;92.70;;;;;;4797095;29;20066;-90
2023/05/13 11:39:49;;;;;;;10.43;2.60;;;22.90;91.80;;;;;;4866358;24;20109;-89
2023/05/13 11:42:16;;;;;;;5.38;3.17;;;22.90;88.10;;;;;;4842853;24;20070;-91
2023/05/13 11:44:53;;;;;;;7.28;2.58;;;23.00;91.80;;;;;;4825980;29;20047;-91
2023/05/13 11:47:26;;;;;;;7.50;2.90;;;23.00;89.00;;;;;;4830865;29;20061;-91
2023/05/13 11:49:56;;;;;;;4.95;2.70;;;23.00;91.90;;;;;;4898604;24;20053;-92
2023/05/13 11:52:33;;;;;;;7.25;2.85;;;23.00;92.30;;;;;;4832810;29;20054;-91
2023/05/13 11:55:19;;;;;;;6.28;2.47;;;23.00;92.10;;;;;;4810014;29;20046;-91
2023/05/13 11:58:03;;;;;;;6.35;2.97;;;23.00;86.50;;;;;;5000184;24;20089;-93
2023/05/13 12:00:52;;;;;;;8.07;2.70;;;23.10;91.40;;;;;;4840268;24;20902;-93
2023/05/13 12:04:37;;;;;;;9.07;2.90;;;23.10;90.50;;;;;;4844592;24;20144;-93
2023/05/13 12:07:03;;;;;;;7.45;2.70;;;23.20;92.10;;;;;;4820425;29;20050;-92
2023/05/13 12:09:43;;;;;;;5.35;2.97;;;23.30;91.20;;;;;;4851405;29;20037;-93
2023/05/13 12:12:37;;;;;;;6.10;2.75;;;23.40;92.60;;;;;;4858536;29;20080;-92
2023/05/13 12:15:46;;;;;;;4.90;2.50;;;23.40;93.30;;;;;;4859211;24;20057;-93
2023/05/13 12:18:12;;;;;;;8.05;2.58;;;23.50;93.20;;;;;;4836311;29;20046;-91
2023/05/13 12:21:00;;;;;;;8.57;2.35;;;23.50;89.10;;;;;;4843843;29;20061;-92
2023/05/13 12:23:45;;;;;;;5.75;2.47;;;23.50;78.40;;;;;;4838237;29;20046;-92
2023/05/13 12:26:14;;;;;;;5.28;2.63;;;23.60;89.60;;;;;;4792259;29;20046;-92
2023/05/13 12:28:58;;;;;;;4.40;2.40;;;23.60;91.10;;;;;;4822618;29;20563;-91
2023/05/13 12:31:24;;;;;;;10.80;2.40;;;23.70;92.10;;;;;;4821272;29;20057;-92
2023/05/13 12:34:50;;;;;;;5.93;2.60;;;23.70;90.00;;;;;;4821619;29;20054;-92
2023/05/13 12:37:44;;;;;;;5.28;2.78;;;23.70;90.70;;;;;;4824772;29;20047;-92
2023/05/13 12:41:06;;;;;;;5.28;2.33;;;23.70;92.80;;;;;;4824916;29;20058;-93
2023/05/13 12:43:53;;;;;;;4.50;2.78;;;23.80;92.40;;;;;;4841848;29;20054;-91
2023/05/13 13:27:55;;;;;;;5.43;3.33;;;24.10;93.80;;;;;;5359072;24;18220001;-91
2023/05/13 13:30:20;;;;;;;6.30;2.90;;;24.30;94.60;;;;;;4822843;29;20352;-92
2023/05/13 13:32:46;;;;;;;6.32;2.78;;;24.30;93.90;;;;;;4822986;29;20050;-92
2023/05/13 13:35:12;;;;;;;5.82;2.58;;;24.30;94.20;;;;;;4825003;29;20129;-90
2023/05/13 13:38:15;;;;;;;8.38;2.67;;;24.30;92.20;;;;;;4824436;29;20094;-90
2023/05/13 13:40:58;;;;;;;5.10;2.63;;;24.30;92.00;;;;;;4808172;29;20503;-92
2023/05/13 13:43:24;;;;;;;7.68;3.00;;;24.30;92.60;;;;;;4824819;29;20043;-92
2023/05/13 13:45:59;;;;;;;5.65;3.08;;;24.40;92.80;;;;;;4822300;29;20065;-92
2023/05/13 13:48:24;;;;;;;10.05;3.42;;;24.50;93.20;;;;;;4823716;29;20461;-90
2023/05/13 13:50:51;;;;;;;7.15;2.90;;;24.50;93.80;;;;;;4824513;29;20046;-91
2023/05/13 13:53:17;;;;;;;8.40;3.40;;;24.50;93.70;;;;;;4822840;29;20522;-91
2023/05/13 13:56:00;;;;;;;5.18;2.78;;;24.50;93.90;;;;;;4826752;29;20059;-94
2023/05/13 13:58:25;;;;;;;5.50;2.72;;;24.60;93.30;;;;;;4825283;29;20050;-90
2023/05/13 14:01:00;;;;;;;5.60;2.88;;;24.60;93.00;;;;;;4852106;29;20066;-92
2023/05/13 14:03:29;;;;;;;10.40;3.15;;;24.60;92.30;;;;;;4823923;29;20514;-91
2023/05/13 14:05:58;;;;;;;5.85;3.10;;;24.60;91.50;;;;;;4832851;29;20046;-90
2023/05/13 14:08:46;;;;;;;6.25;2.85;;;24.70;94.40;;;;;;4825000;29;20073;-90
2023/05/13 14:11:13;;;;;;;5.25;3.10;;;24.70;93.70;;;;;;4826964;29;20490;-90
2023/05/13 14:13:38;;;;;;;5.97;2.67;;;24.70;94.10;;;;;;4827376;29;20054;-91
2023/05/13 14:16:13;;;;;;;6.53;2.78;;;24.80;93.70;;;;;;4826360;29;20046;-90
2023/05/13 14:18:59;;;;;;;6.68;3.20;;;24.80;92.10;;;;;;4826778;29;20053;-90
2023/05/13 14:24:00;;;;;;;9.60;3.22;;;24.90;94.60;;;;;;4594168;27;20061;-91
2023/05/13 14:26:37;;;;;;;8.32;2.90;;;24.90;94.40;;;;;;4844863;29;20560;-91
2023/05/13 14:29:15;;;;;;;6.28;3.00;;;24.90;93.80;;;;;;4845508;29;20479;-92
2023/05/13 14:31:40;;;;;;;7.10;3.50;;;24.90;93.50;;;;;;4846416;29;20137;-93
2023/05/13 14:34:12;;;;;;;7.78;2.97;;;25.00;93.30;;;;;;4846115;29;20073;-93
2023/05/13 14:36:56;;;;;;;7.57;3.30;;;25.00;92.30;;;;;;4841975;24;20061;-91
2023/05/13 14:39:46;;;;;;;6.70;3.35;;;25.00;93.80;;;;;;4831922;29;20415;-90
2023/05/13 14:42:34;;;;;;;;;;;25.00;95.30;;;;;;4831781;29;20384;-90
2023/05/13 14:45:12;;;;;;;8.23;2.78;;;25.00;94.80;;;;;;4830679;29;20327;-91
2023/05/13 14:47:38;;;;;;;6.97;3.15;;;25.00;93.00;;;;;;4828243;29;20054;-90
2023/05/13 14:50:04;;;;;;;9.40;3.35;;;25.10;93.90;;;;;;4843359;29;20050;-90
2023/05/13 14:52:36;;;;;;;7.28;3.13;;;25.10;94.40;;;;;;4843101;29;20102;-91
2023/05/13 14:55:02;;;;;;;6.78;3.60;;;25.10;92.40;;;;;;4839284;29;20127;-92
2023/05/13 14:57:27;;;;;;;7.03;3.63;;;25.10;93.40;;;;;;4834363;29;20436;-92
2023/05/13 15:00:12;;;;;;;7.90;3.13;;;25.10;94.30;;;;;;4834257;29;20054;-90
2023/05/13 15:02:40;;;;;;;6.93;3.55;;;25.10;95.00;;;;;;4825857;29;20055;-91
2023/05/13 15:05:07;;;;;;;5.63;2.97;;;25.10;96.50;;;;;;4879222;24;20510;-93
2023/05/13 15:07:32;;;;;;;6.70;3.30;;;25.20;94.60;;;;;;4852587;29;20092;-94
2023/05/13 15:09:58;;;;;;;6.70;2.97;;;25.10;95.00;;;;;;4862774;29;20085;-89
2023/05/13 15:12:39;;;;;;;7.28;3.20;;;25.10;95.00;;;;;;4862914;29;20105;-92
2023/05/13 15:15:09;;;;;;;5.50;3.38;;;25.10;93.40;;;;;;4851072;24;20051;-90
2023/05/13 15:17:53;;;;;;;6.13;2.80;;;25.10;96.00;;;;;;4829189;29;20085;-92
2023/05/13 15:21:18;;;;;;;6.18;3.83;;;25.00;92.60;;;;;;4804494;29;20522;-93
2023/05/13 15:28:07;;;;;;;;;;;25.10;99.30;;;;;;4738941;30;20060;-92
2023/05/13 15:30:35;;;;;;;6.65;3.25;;;25.10;97.50;;;;;;4771179;30;20048;-92
2023/05/13 15:33:18;;;;;;;9.05;3.42;;;25.10;93.30;;;;;;4754588;30;20067;-92
2023/05/13 15:40:20;;;;;;;6.45;3.20;;;25.00;92.70;;;;;;4753955;30;20097;-94
2023/05/13 15:43:54;;;;;;;6.55;3.50;;;24.90;95.10;;;;;;4770038;30;20066;-95
2023/05/13 15:52:04;;;;;;;8.10;4.00;;;25.10;99.90;;;;;;4830922;24;20065;-93
2023/05/13 15:54:33;;;;;;;7.53;4.20;;;25.20;99.80;;;;;;4841889;29;20050;-92
2023/05/13 15:57:17;;;;;;;;;;;;;;;;;;;;;
2023/05/13 16:00:22;;;;;;;8.00;3.35;;;25.40;99.90;;;;;;4814286;29;20133;-92
2023/05/13 16:03:09;;;;;;;7.97;4.25;;;25.30;99.20;;;;;;4808708;29;20058;-92
2023/05/13 16:05:54;;;;;;;7.32;4.00;;;25.20;99.90;;;;;;4822184;29;20058;-91
2023/05/13 16:12:26;;;;;;;5.55;3.95;;;25.30;99.90;;;;;;4788790;30;20135;-93
2023/05/13 16:15:43;;;;;;;6.25;3.78;;;25.30;99.90;;;;;;4808211;29;20046;-92
2023/05/13 16:18:30;;;;;;;6.72;3.78;;;25.30;99.90;;;;;;4825215;29;20082;-91
2023/05/13 16:20:56;;;;;;;5.70;2.13;;;25.30;99.90;;;;;;4912333;24;20042;-91
2023/05/13 16:23:34;;;;;;;5.75;3.35;;;25.20;93.60;;;;;;4818835;29;20089;-92
2023/05/13 16:26:17;;;;;;;6.30;3.53;;;25.10;97.00;;;;;;4906835;24;20128;-93
2023/05/13 16:28:43;;;;;;;6.53;2.97;;;25.10;99.10;;;;;;4842297;29;20058;-93